Date,TemperatureHighF,TemperatureAvgF,TemperatureLowF,DewpointHighF,DewpointAvgF,DewpointLowF,HumidityHigh,HumidityAvg,HumidityLow,PressureMaxIn,PressureMinIn,WindSpeedMaxMPH,WindSpeedAvgMPH,GustSpeedMaxMPH,PrecipitationSumIn
2013-1-1,38.8,34.5,30.8,36.0,32.8,30.0,98,93,86,30.51,30.36,6,1,12,0.01
2013-1-2,44.4,38.2,34.3,36.0,31.9,28.0,90,78,64,30.36,30.20,7,2,10,0.00
2013-1-3,41.6,37.2,33.6,37.0,28.5,23.0,90,71,55,30.19,30.07,16,4,20,0.01
2013-1-4,42.0,39.8,37.4,41.0,39.3,36.0,99,98,91,30.29,30.11,15,4,19,0.01
2013-1-5,43.1,41.0,38.6,40.0,38.9,36.0,98,92,84,30.17,30.04,24,6,35,0.26
2013-1-6,39.8,38.6,36.8,39.0,38.0,36.0,99,98,89,30.12,29.91,27,6,31,0.38
2013-1-7,45.2,40.8,37.0,45.0,40.0,37.0,100,97,90,30.11,29.77,21,8,33,0.41
2013-1-8,45.9,41.3,35.9,46.0,40.2,35.0,100,96,83,30.13,29.63,19,6,29,1.23
2013-1-9,42.5,38.7,34.8,42.0,36.4,32.0,98,91,81,29.91,29.63,20,5,29,0.04
2013-1-10,36.0,33.3,29.9,35.0,31.7,24.0,99,93,77,30.13,29.91,8,2,17,0.11
2013-1-11,37.3,30.1,26.8,25.0,22.0,19.0,86,72,53,30.32,30.13,11,3,21,0.01
2013-1-12,36.6,28.7,25.9,27.0,22.4,-99.9,89,80,57,30.44,30.32,10,2,15,0.01
2013-1-13,33.4,29.6,26.7,29.0,26.4,24.0,91,87,78,30.48,30.43,5,1,8,0.01
2013-1-14,32.5,31.4,30.5,32.0,30.5,28.0,100,96,91,30.57,30.45,9,3,12,0.00
2013-1-15,37.0,33.8,31.9,35.0,32.6,31.0,99,95,89,30.71,30.57,3,1,7,0.06
2013-1-16,43.5,35.8,32.2,36.0,32.5,31.0,95,88,72,30.68,30.52,5,1,9,0.02
2013-1-17,44.0,37.4,31.9,38.0,34.6,31.0,96,89,80,30.52,30.28,8,2,14,0.01
2013-1-18,41.8,35.4,32.1,38.0,34.1,32.0,99,95,86,30.34,30.25,7,2,11,0.00
2013-1-19,41.4,34.5,31.5,38.0,33.4,30.0,98,95,86,30.38,30.34,6,2,10,0.00
2013-1-20,47.6,37.2,33.2,41.0,34.9,30.0,98,91,73,30.40,30.26,8,2,10,0.01
2013-1-21,43.2,35.9,30.8,38.0,33.3,30.0,98,90,77,30.26,30.12,5,1,9,0.00
2013-1-22,42.9,36.1,29.8,39.0,32.2,29.0,99,87,62,30.14,29.91,7,1,13,0.00
2013-1-23,44.1,40.3,38.8,40.0,36.1,26.0,99,86,49,30.10,29.79,14,4,22,0.24
2013-1-24,40.4,38.7,37.2,39.0,36.7,34.0,97,93,80,30.19,29.96,20,7,34,0.04
2013-1-25,46.7,41.9,38.8,43.0,40.1,38.0,99,93,80,30.04,29.86,15,5,25,0.02
2013-1-26,40.1,38.1,36.2,38.0,37.2,36.0,99,96,88,30.00,29.81,16,4,27,0.24
2013-1-27,37.8,36.8,35.3,38.0,36.5,35.0,99,99,96,30.02,29.96,10,3,14,0.23
2013-1-28,39.2,37.2,35.3,38.0,36.3,35.0,99,96,92,30.05,29.97,11,2,13,0.05
2013-1-29,43.4,40.7,38.8,42.0,39.1,37.0,99,94,87,30.30,30.05,9,2,15,0.12
2013-1-30,44.4,42.5,41.1,44.0,42.4,41.0,100,99,98,30.36,30.30,9,3,13,0.05
2013-1-31,43.3,42.7,41.1,43.0,42.8,41.0,100,100,99,30.36,30.28,12,5,21,0.06
2013-2-1,47.4,41.8,39.0,46.0,41.3,39.0,100,98,88,30.42,30.32,9,2,13,0.00
2013-2-2,46.4,39.8,37.0,43.0,38.9,37.0,99,96,86,30.39,30.23,9,2,15,0.01
2013-2-3,40.7,38.9,36.6,41.0,38.9,36.0,100,100,99,30.28,30.17,9,3,13,0.09
2013-2-4,45.4,41.1,39.8,41.0,40.3,40.0,100,97,85,30.17,29.81,13,5,23,0.02
2013-2-5,44.3,41.2,39.3,42.0,38.9,-99.9,100,94,88,29.86,29.74,23,6,26,0.04
2013-2-6,43.8,40.6,39.0,40.0,39.0,37.0,99,94,78,29.97,29.71,19,8,39,0.03
2013-2-7,45.8,39.7,35.2,39.0,36.6,33.0,98,88,69,30.18,29.69,21,5,45,0.02
2013-2-8,40.0,36.8,35.1,39.0,33.4,-99.9,99,93,89,30.29,30.18,10,2,13,0.03
2013-2-9,39.3,37.5,35.5,39.0,36.6,35.0,98,96,92,30.33,30.25,4,0,6,0.02
2013-2-10,44.1,37.8,33.5,38.0,35.1,32.0,96,90,78,30.37,30.32,5,2,9,0.00
2013-2-11,40.4,38.8,38.3,40.0,38.4,37.0,100,98,95,30.33,30.29,8,3,14,0.05
2013-2-12,44.4,41.6,40.0,43.0,41.3,40.0,100,99,85,30.38,30.24,14,6,23,0.01
2013-2-13,46.9,41.7,38.6,41.0,38.4,37.0,94,88,76,30.47,30.27,12,3,16,0.00
2013-2-14,41.8,40.4,38.8,42.0,39.8,37.0,100,97,87,30.56,30.46,8,3,16,0.18
2013-2-15,49.4,42.9,39.5,44.0,41.0,38.0,100,93,79,30.57,30.15,13,3,17,0.00
2013-2-16,47.3,41.7,38.4,42.0,39.2,37.0,99,91,75,30.16,30.08,15,5,22,0.05
2013-2-17,41.8,38.1,36.0,40.0,36.3,34.0,99,93,84,30.21,30.09,10,2,13,0.12
2013-2-18,39.4,37.9,35.2,37.0,35.3,34.0,96,90,80,30.09,29.73,16,6,30,0.00
2013-2-19,45.4,40.0,37.5,39.0,34.8,30.0,90,81,64,29.97,29.73,16,6,23,0.01
2013-2-20,38.7,37.2,35.4,39.0,36.5,34.0,99,97,90,30.00,29.97,12,4,21,0.17
2013-2-21,39.3,37.8,36.5,39.0,37.4,36.0,99,98,94,30.02,29.96,12,5,21,0.21
2013-2-22,42.2,38.0,35.6,41.0,36.9,33.0,100,95,76,30.00,29.62,22,9,34,0.28
2013-2-23,47.8,39.8,35.2,39.0,35.6,34.0,97,85,61,30.32,29.82,8,3,17,0.00
2013-2-24,41.1,39.0,36.4,38.0,36.2,33.0,97,90,82,30.34,29.83,27,9,37,0.00
2013-2-25,46.3,40.1,36.1,38.0,34.9,32.0,98,83,61,30.26,29.81,29,10,44,0.07
2013-2-26,40.5,38.4,35.6,37.0,35.0,32.0,97,87,76,30.30,30.11,28,7,34,0.02
2013-2-27,44.1,39.2,36.8,41.0,36.8,32.0,98,91,70,30.30,30.17,9,3,14,0.03
2013-2-28,46.2,42.2,37.8,46.0,41.1,36.0,100,95,86,30.27,30.16,22,6,28,0.48
2013-3-1,49.3,47.3,45.6,48.0,47.0,45.0,100,98,94,30.27,30.21,18,8,24,0.35
2013-3-2,47.7,43.5,36.1,48.0,42.5,34.0,100,96,85,30.21,30.01,16,6,25,0.09
2013-3-3,46.5,38.5,34.1,40.0,33.9,32.0,93,84,68,30.30,30.15,13,4,20,0.00
2013-3-4,47.8,40.7,33.9,40.0,33.2,26.0,95,76,54,30.30,29.95,11,3,14,0.00
2013-3-5,43.7,41.5,38.0,38.0,30.5,24.0,92,66,49,29.94,29.74,14,5,23,0.08
2013-3-6,39.7,38.1,36.7,38.0,37.0,35.0,99,95,82,29.86,29.60,16,5,23,0.34
2013-3-7,42.3,38.6,36.5,42.0,38.4,36.0,99,98,96,30.10,29.86,8,2,10,0.15
2013-3-8,49.2,40.5,36.2,41.0,37.6,34.0,99,90,67,30.23,30.08,10,4,14,0.00
2013-3-9,48.7,41.3,37.1,42.0,37.7,35.0,97,87,70,30.48,30.23,12,3,13,0.00
2013-3-10,41.8,40.3,38.6,40.0,38.5,37.0,98,93,85,30.47,30.41,7,2,10,0.00
2013-3-11,47.4,41.7,38.2,42.0,38.9,37.0,98,90,69,30.43,30.08,13,3,30,0.12
2013-3-12,47.4,45.8,42.5,47.0,45.7,42.0,100,99,98,30.08,29.95,20,9,32,0.37
2013-3-13,47.5,46.5,46.0,48.0,46.5,46.0,100,100,100,30.14,30.02,22,9,30,0.23
2013-3-14,48.7,46.7,44.5,48.0,45.6,44.0,100,96,89,30.10,29.98,15,7,29,0.23
2013-3-15,54.1,46.8,44.1,49.0,45.7,43.0,100,96,83,30.18,30.09,12,4,17,0.08
2013-3-16,44.7,39.1,36.0,43.0,30.7,-99.9,99,84,73,30.09,29.82,24,5,26,0.12
2013-3-17,45.0,38.5,34.9,35.0,31.7,29.0,89,77,55,30.13,29.91,13,4,19,0.00
2013-3-18,49.4,39.5,32.9,36.0,33.8,30.0,99,81,48,30.23,30.04,15,4,24,0.16
2013-3-19,48.7,41.1,35.1,40.0,31.8,25.0,89,71,40,30.22,29.51,17,5,32,0.02
2013-3-20,47.8,42.4,35.2,46.0,38.3,29.0,99,85,68,29.93,29.27,36,13,49,0.09
2013-3-21,45.2,36.9,33.8,35.0,32.2,30.0,94,83,64,30.18,29.93,12,4,18,0.00
2013-3-22,46.5,37.0,32.5,34.0,30.7,28.0,93,78,58,30.36,30.18,9,4,16,0.00
2013-3-23,48.0,38.8,33.6,33.0,29.5,23.0,87,71,45,30.38,30.30,10,3,12,0.00
2013-3-24,49.5,41.1,35.7,35.0,29.9,26.0,80,65,44,30.30,30.13,7,2,17,0.00
2013-3-25,58.6,47.3,39.1,37.0,32.8,28.0,72,58,43,30.13,29.95,9,3,11,0.00
2013-3-26,57.7,47.0,41.5,41.0,35.6,31.0,82,65,51,30.01,29.96,9,2,11,0.00
2013-3-27,56.2,47.8,41.5,44.0,40.1,33.0,92,75,59,29.99,29.93,8,2,10,0.00
2013-3-28,61.1,50.3,43.4,47.0,43.4,40.0,89,78,57,30.13,29.99,8,2,10,0.00
2013-3-29,62.6,52.0,43.8,49.0,43.7,38.0,93,75,51,30.25,30.13,9,3,10,0.00
2013-3-30,60.6,51.2,43.4,48.0,42.2,35.0,96,73,50,30.26,30.09,20,5,23,0.00
2013-3-31,66.5,53.5,43.7,46.0,41.3,33.0,96,66,37,30.08,29.91,9,5,17,0.00
2013-4-1,54.5,49.5,45.4,47.0,42.7,36.0,95,79,50,30.10,29.95,14,6,18,0.00
2013-4-2,50.1,46.3,43.5,44.0,42.9,41.0,96,88,76,30.18,30.11,10,3,20,0.00
2013-4-3,58.0,49.5,44.8,48.0,44.4,43.0,94,83,63,30.18,29.95,7,2,10,0.00
2013-4-4,50.8,49.3,46.9,50.0,47.0,43.0,99,92,76,29.94,29.55,15,4,26,0.34
2013-4-5,53.4,47.8,44.7,51.0,46.4,43.0,98,94,85,29.81,29.62,18,6,28,0.16
2013-4-6,50.7,45.7,41.7,45.0,40.7,35.0,96,83,59,29.86,29.57,19,-19,34,0.05
2013-4-7,44.1,41.1,39.1,44.0,40.3,38.0,99,96,92,29.85,29.53,14,4,24,0.63
2013-4-8,49.6,44.4,41.3,47.0,42.4,40.0,98,92,83,30.24,29.86,9,2,11,0.01
2013-4-9,47.7,44.4,41.7,44.0,41.8,40.0,98,90,77,30.32,30.09,13,4,24,0.00
2013-4-10,48.6,45.8,42.4,47.0,43.5,39.0,99,91,81,30.20,29.83,24,9,33,0.36
2013-4-11,51.8,44.3,40.2,40.0,37.5,33.0,95,78,57,30.28,30.16,9,3,12,0.00
2013-4-12,41.6,38.9,36.1,39.0,36.4,33.0,99,91,73,30.16,29.64,26,6,32,0.30
2013-4-13,46.6,38.5,34.4,44.0,36.2,30.0,99,92,79,29.97,29.70,19,4,28,0.12
2013-4-14,51.4,41.6,36.0,42.0,36.7,34.0,97,84,53,29.99,29.92,8,2,14,0.04
2013-4-15,54.3,44.6,38.6,43.0,38.2,32.0,100,79,50,30.16,29.92,10,2,21,0.03
2013-4-16,57.2,47.9,42.0,40.0,32.5,26.0,69,56,33,30.37,30.17,14,4,16,0.00
2013-4-17,52.3,46.2,41.9,42.0,37.1,30.0,83,71,56,30.42,30.37,13,4,17,0.00
2013-4-18,44.8,42.0,39.7,45.0,41.2,37.0,99,97,78,30.41,30.17,15,6,22,0.46
2013-4-19,50.4,46.6,44.9,50.0,46.3,43.0,100,98,93,30.16,30.05,11,3,22,0.41
2013-4-20,54.1,47.3,43.4,46.0,42.3,39.0,94,83,66,30.23,30.14,14,4,23,0.00
2013-4-21,50.1,43.8,40.3,42.0,39.4,37.0,96,85,63,30.38,30.20,9,3,16,0.09
2013-4-22,58.1,47.7,40.5,38.0,27.9,17.0,90,49,21,30.55,30.38,14,5,18,0.00
2013-4-23,56.5,49.6,43.6,43.0,33.7,23.0,76,55,43,30.42,30.27,12,4,18,0.00
2013-4-24,65.5,53.8,44.6,43.0,37.3,31.0,81,56,34,30.31,30.04,9,3,14,0.00
2013-4-25,62.1,54.3,48.4,48.0,41.9,35.0,77,64,47,30.11,30.01,12,5,15,0.00
2013-4-26,57.9,51.3,43.6,46.0,40.3,35.0,90,68,43,30.23,30.10,14,6,19,0.00
2013-4-27,54.3,48.9,45.8,47.0,42.3,36.0,96,79,51,30.18,30.09,16,5,19,0.01
2013-4-28,49.5,45.6,42.7,42.0,39.4,36.0,96,79,70,30.18,29.90,15,5,26,0.05
2013-4-29,51.5,42.9,38.6,42.0,36.8,31.0,97,80,51,30.12,29.89,15,5,23,0.17
2013-4-30,53.9,43.3,36.9,39.0,34.4,29.0,92,72,46,30.43,30.13,13,5,18,0.02
2013-5-1,60.7,48.3,39.2,44.0,33.9,22.0,92,60,31,30.59,30.44,9,4,11,0.00
2013-5-2,59.1,50.7,45.1,44.0,36.0,22.0,77,58,37,30.56,30.39,18,5,26,0.00
2013-5-3,64.9,54.8,46.8,48.0,43.4,38.0,92,68,46,30.41,30.25,27,9,28,0.00
2013-5-4,71.2,60.2,49.6,50.0,43.5,31.0,87,58,26,30.25,30.01,22,10,30,0.00
2013-5-5,80.7,68.7,56.6,49.0,42.1,36.0,61,40,26,30.00,29.77,12,6,18,0.00
2013-5-6,81.0,70.1,59.8,51.0,46.3,38.0,59,43,30,29.83,29.74,7,2,14,0.00
2013-5-7,68.9,58.9,47.3,54.0,47.7,44.0,94,68,42,29.95,29.77,9,4,24,0.00
2013-5-8,58.6,52.6,47.2,53.0,48.7,44.0,98,87,63,30.12,29.95,14,6,21,0.00
2013-5-9,66.1,56.6,47.3,53.0,49.2,43.0,93,77,62,30.20,30.11,12,5,16,0.00
2013-5-10,71.4,62.5,52.2,57.0,49.4,37.0,79,63,33,30.18,30.10,12,3,15,0.00
2013-5-11,68.2,62.6,57.3,57.0,47.1,35.0,95,59,32,30.14,29.97,12,4,14,0.08
2013-5-12,58.1,56.2,53.7,57.0,55.4,53.0,99,97,93,30.05,29.97,10,3,15,0.40
2013-5-13,58.3,51.3,45.8,54.0,48.7,41.0,98,91,79,30.16,29.88,26,5,34,0.06
2013-5-14,57.0,50.1,44.3,47.0,41.9,37.0,96,75,52,30.20,30.12,16,4,21,0.00
2013-5-15,60.5,51.9,47.3,48.0,44.2,39.0,97,76,55,30.11,30.00,10,2,13,0.11
2013-5-16,63.5,53.7,48.4,56.0,50.2,47.0,99,89,68,30.00,29.88,11,3,14,0.06
2013-5-17,53.5,51.2,49.3,52.0,49.2,48.0,99,93,86,30.03,29.91,14,5,17,0.07
2013-5-18,56.1,50.4,47.4,52.0,48.3,47.0,98,92,77,30.25,30.03,7,-8,10,0.12
2013-5-19,62.6,53.1,48.5,49.0,47.1,45.0,96,81,60,30.39,30.26,11,4,20,0.00
2013-5-20,59.7,52.7,47.3,50.0,46.7,43.0,94,80,68,30.33,29.90,10,4,19,0.00
2013-5-21,48.7,45.4,42.7,46.0,44.0,42.0,98,95,86,29.90,29.77,10,2,16,0.30
2013-5-22,55.5,47.3,42.8,48.0,43.9,42.0,97,88,67,29.93,29.84,8,3,17,0.19
2013-5-23,57.2,47.7,41.8,47.0,43.6,41.0,98,86,64,29.98,29.90,14,4,22,0.01
2013-5-24,58.6,51.0,45.7,47.0,43.4,41.0,89,76,59,30.01,29.96,10,4,16,0.00
2013-5-25,58.8,51.0,46.1,48.0,45.7,43.0,94,83,61,30.01,29.98,10,4,18,0.02
2013-5-26,56.0,51.1,48.3,54.0,49.8,46.0,99,95,88,29.98,29.91,8,2,14,0.42
2013-5-27,53.4,51.4,48.7,51.0,49.2,47.0,97,92,82,29.91,29.65,23,9,32,0.23
2013-5-28,56.6,50.6,47.6,53.0,49.5,47.0,99,96,85,29.84,29.71,16,5,18,0.19
2013-5-29,52.9,49.7,47.9,50.0,47.5,43.0,98,92,81,29.93,29.67,9,3,13,0.04
2013-5-30,58.2,50.2,46.4,51.0,46.3,42.0,96,86,73,30.22,29.94,12,4,17,0.02
2013-5-31,63.1,52.9,46.7,52.0,46.7,44.0,97,80,59,30.34,30.22,10,3,11,0.02
2013-6-1,65.2,56.2,49.7,53.0,47.0,42.0,88,72,58,30.24,30.07,14,4,17,0.00
2013-6-2,65.4,55.4,48.9,52.0,48.6,47.0,93,79,60,30.07,30.03,19,6,23,0.00
2013-6-3,69.8,58.9,51.1,55.0,50.2,47.0,91,74,55,30.10,30.04,11,4,14,0.00
2013-6-4,77.0,63.2,53.1,54.0,48.8,33.0,84,62,31,30.13,30.02,8,2,14,0.00
2013-6-5,71.8,64.0,56.7,57.0,50.0,35.0,86,62,34,30.07,29.99,8,2,12,0.00
2013-6-6,71.3,63.0,54.1,56.0,49.3,42.0,90,63,43,30.04,29.97,13,5,19,0.00
2013-6-7,63.1,57.1,50.1,54.0,46.8,39.0,88,70,44,30.10,29.97,10,5,19,0.03
2013-6-8,63.4,54.5,48.9,51.0,47.5,44.0,89,78,59,30.15,30.09,9,3,13,0.00
2013-6-9,61.7,54.6,49.7,51.0,46.2,40.0,91,74,52,30.09,30.01,13,3,18,0.00
2013-6-10,65.4,55.4,48.6,50.0,45.9,41.0,87,71,58,30.01,29.87,12,3,15,0.00
2013-6-11,60.2,52.7,48.4,47.0,45.0,41.0,88,75,57,30.07,29.89,12,3,16,0.00
2013-6-12,64.2,53.4,46.7,51.0,47.4,44.0,95,81,55,30.12,30.07,8,3,15,0.04
2013-6-13,63.1,55.8,48.5,52.0,47.7,45.0,91,75,52,30.17,30.12,10,2,19,0.00
2013-6-14,60.8,53.5,47.5,51.0,48.1,46.0,95,82,65,30.20,30.07,12,4,17,0.00
2013-6-15,68.9,59.2,51.4,54.0,50.3,47.0,87,73,56,30.06,29.93,12,4,20,0.00
2013-6-16,66.5,61.0,54.4,55.0,50.7,44.0,87,69,53,30.05,29.97,11,5,16,0.00
2013-6-17,68.5,60.3,54.1,53.0,50.9,49.0,92,72,56,30.05,29.89,11,5,16,0.06
2013-6-18,69.7,58.8,51.8,55.0,50.8,47.0,98,77,49,29.94,29.88,8,4,13,0.00
2013-6-19,65.2,57.9,52.7,54.0,49.2,45.0,88,74,57,29.96,29.87,9,2,18,0.00
2013-6-20,55.4,51.3,49.9,51.0,49.2,46.0,100,92,72,30.07,29.89,8,2,13,0.40
2013-6-21,62.6,54.1,48.9,54.0,50.2,48.0,99,87,69,30.16,30.07,8,4,14,0.00
2013-6-22,72.6,61.8,53.5,56.0,52.2,50.0,90,72,52,30.12,29.86,11,4,14,0.00
2013-6-23,63.6,60.8,58.0,60.0,56.7,52.0,94,86,73,29.86,29.58,8,2,11,0.05
2013-6-24,60.7,57.2,53.2,58.0,55.5,53.0,99,94,84,29.66,29.52,9,2,17,0.16
2013-6-25,67.8,58.6,53.8,57.0,54.2,52.0,96,85,65,29.78,29.63,18,6,25,0.04
2013-6-26,65.7,58.7,54.4,58.0,54.8,52.0,95,87,74,30.05,29.78,15,6,27,0.02
2013-6-27,64.9,59.9,56.6,60.0,55.2,-99.9,95,87,78,30.20,30.03,15,5,25,0.10
2013-6-28,74.0,65.5,58.8,64.0,60.6,58.0,96,85,64,30.20,30.05,6,1,11,0.00
2013-6-29,77.3,68.4,61.2,65.0,61.3,59.0,93,78,64,30.08,29.98,7,2,11,0.00
2013-6-30,87.2,75.5,66.0,67.0,62.1,58.0,84,64,47,29.99,29.84,7,2,11,0.00
2013-7-1,81.4,73.6,65.9,64.0,60.2,56.0,77,63,50,29.97,29.88,11,3,15,0.00
2013-7-2,75.4,70.6,63.8,60.0,55.3,42.0,76,59,39,30.07,29.98,11,3,18,0.00
2013-7-3,71.0,64.9,58.1,54.0,48.4,26.0,80,58,22,30.12,30.01,10,3,18,0.00
2013-7-4,66.5,58.7,52.4,55.0,50.1,40.0,86,74,48,30.08,30.01,11,4,16,0.00
2013-7-5,72.2,65.1,57.6,57.0,53.5,50.0,88,67,55,30.00,29.94,12,4,17,0.00
2013-7-6,77.3,63.4,56.1,57.0,53.6,49.0,92,72,46,29.96,29.85,15,5,19,0.00
2013-7-7,72.9,65.6,57.6,59.0,54.3,49.0,87,68,54,29.92,29.86,15,5,22,0.00
2013-7-8,76.6,63.7,56.8,60.0,55.7,53.0,93,76,55,30.07,29.91,13,4,16,0.00
2013-7-9,78.5,69.8,60.7,60.0,54.5,44.0,79,60,32,30.09,29.96,8,2,10,0.00
2013-7-10,69.1,60.6,53.8,55.0,51.0,44.0,90,71,53,30.00,29.90,14,4,19,0.00
2013-7-11,63.8,56.0,50.8,51.0,46.2,41.0,84,70,57,30.05,29.92,10,3,17,0.00
2013-7-12,66.3,58.3,53.0,53.0,49.2,41.0,89,73,57,30.07,29.99,11,4,14,0.00
2013-7-13,76.0,62.6,52.4,55.0,48.7,44.0,85,63,34,30.19,30.07,9,3,13,0.00
2013-7-14,72.5,64.5,57.4,57.0,49.6,39.0,81,60,31,30.12,29.99,13,5,18,0.00
2013-7-15,77.2,65.2,56.5,55.0,49.7,40.0,90,62,31,30.05,29.91,17,9,25,0.00
2013-7-16,78.5,71.9,66.1,55.0,46.3,39.0,64,41,27,29.91,29.81,16,8,24,0.00
2013-7-17,73.9,65.7,58.7,58.0,53.1,43.0,89,66,34,30.15,29.85,16,6,27,0.00
2013-7-18,74.2,63.5,56.9,59.0,55.0,52.0,85,74,57,30.21,30.11,9,4,12,0.00
2013-7-19,75.5,66.7,58.9,60.0,57.2,54.0,87,72,59,30.13,30.01,7,3,11,0.00
2013-7-20,68.1,61.7,53.6,58.0,54.1,43.0,94,77,48,30.04,29.93,12,4,16,0.00
2013-7-21,69.5,61.3,53.9,58.0,54.2,47.0,92,78,56,29.95,29.89,8,4,13,0.00
2013-7-22,75.6,63.8,53.2,60.0,55.8,52.0,95,76,56,30.04,29.91,9,3,12,0.00
2013-7-23,85.6,69.4,60.9,60.0,53.8,48.0,79,60,29,30.05,29.96,9,3,12,0.00
2013-7-24,79.6,70.4,61.7,59.0,54.6,46.0,85,59,40,30.02,29.97,8,3,12,0.00
2013-7-25,75.7,68.8,60.9,59.0,52.5,38.0,87,58,29,30.08,29.98,11,4,18,0.00
2013-7-26,72.6,66.3,58.9,57.0,52.3,46.0,83,62,48,30.13,30.04,14,5,22,0.00
2013-7-27,75.5,64.2,57.2,54.0,50.5,43.0,77,62,47,30.12,29.98,12,4,23,0.00
2013-7-28,70.2,62.6,56.3,56.0,53.9,45.0,93,74,52,29.98,29.92,11,4,17,0.00
2013-7-29,70.8,60.1,52.4,56.0,52.9,51.0,95,78,59,29.98,29.94,8,5,13,0.00
2013-7-30,69.0,61.2,54.6,56.0,53.6,51.0,90,77,64,30.11,29.97,14,6,21,0.00
2013-7-31,70.1,62.0,56.4,58.0,54.4,52.0,87,77,62,30.09,29.97,11,5,15,0.00
2013-8-1,63.1,58.4,52.7,56.0,54.2,51.0,96,86,75,30.02,29.99,15,7,18,0.00
2013-8-2,56.5,54.5,52.4,56.0,53.6,52.0,99,96,89,30.12,30.01,15,5,23,0.12
2013-8-3,73.7,61.5,54.8,60.0,56.2,54.0,98,84,53,30.14,30.05,6,2,11,0.00
2013-8-4,79.2,67.2,58.7,62.0,57.6,53.0,88,73,51,30.05,29.95,10,3,14,0.00
2013-8-5,78.4,69.9,61.1,61.0,53.3,33.0,88,59,25,29.99,29.91,7,3,10,0.00
2013-8-6,79.9,69.1,59.6,56.0,47.9,31.0,69,48,24,29.97,29.91,8,2,9,0.00
2013-8-7,82.6,70.3,62.4,56.0,49.4,37.0,67,49,29,29.98,29.91,10,2,10,0.00
2013-8-8,76.0,67.8,55.6,58.0,54.9,50.0,86,65,44,29.98,29.91,11,4,12,0.00
2013-8-9,83.5,71.2,61.9,59.0,55.3,52.0,74,58,39,29.92,29.81,11,3,15,0.00
2013-8-10,72.8,65.1,54.0,59.0,55.2,42.0,93,71,40,29.97,29.81,18,6,27,0.00
2013-8-11,65.8,59.9,53.5,56.0,52.0,34.0,96,76,34,30.04,29.96,17,7,22,0.08
2013-8-12,70.5,62.5,56.1,57.0,54.6,53.0,89,76,60,30.06,29.98,13,5,22,0.00
2013-8-13,75.6,64.4,56.7,56.0,54.2,52.0,88,71,50,30.08,29.93,9,4,15,0.00
2013-8-14,73.4,64.1,60.3,60.0,57.0,53.0,95,78,54,29.93,29.89,14,4,25,0.22
2013-8-15,65.2,61.5,59.0,62.0,59.2,57.0,97,92,83,29.97,29.89,12,4,19,0.02
2013-8-16,74.7,65.3,57.8,63.0,59.3,56.0,97,82,57,30.00,29.95,13,4,18,0.01
2013-8-17,70.8,64.5,59.5,59.0,56.9,52.0,87,77,66,30.05,29.96,11,4,16,0.00
2013-8-18,72.5,63.0,58.7,58.0,53.8,51.0,83,72,57,30.11,30.04,11,3,17,0.00
2013-8-19,69.0,62.4,58.7,57.0,51.4,45.0,80,68,53,30.11,30.03,10,4,15,0.00
2013-8-20,74.2,63.4,56.2,57.0,50.2,41.0,90,65,36,30.16,30.07,14,4,17,0.00
2013-8-21,76.7,66.3,57.3,58.0,49.1,40.0,83,56,33,30.09,29.94,13,6,19,0.00
2013-8-22,83.2,70.9,60.3,60.0,51.6,40.0,85,52,35,29.95,29.76,13,4,17,0.00
2013-8-23,69.3,62.6,55.4,57.0,53.9,46.0,97,75,45,29.86,29.76,16,7,25,0.03
2013-8-24,66.3,60.2,56.0,57.0,54.5,51.0,96,82,64,29.90,29.85,9,3,15,0.02
2013-8-25,72.9,62.4,55.4,55.0,52.0,49.0,85,70,50,29.92,29.84,8,3,14,0.00
2013-8-26,71.3,61.7,56.9,57.0,53.3,49.0,88,74,58,29.91,29.81,14,6,31,0.00
2013-8-27,70.1,62.0,56.3,59.0,56.7,55.0,95,83,67,29.92,29.78,16,6,21,0.10
2013-8-28,71.0,62.8,56.6,64.0,60.1,55.0,99,91,76,29.89,29.80,11,2,14,0.13
2013-8-29,65.7,62.3,59.5,62.0,61.0,58.0,98,95,88,29.95,29.82,19,7,30,0.27
2013-8-30,73.5,63.5,57.9,60.0,56.1,52.0,97,78,54,30.14,29.95,10,4,16,0.00
2013-8-31,72.2,63.0,54.7,60.0,55.3,50.0,97,77,54,30.07,29.83,12,4,17,0.00
2013-9-1,74.0,65.6,59.8,57.0,55.0,52.0,80,69,54,29.86,29.78,10,3,13,0.00
2013-9-2,71.0,65.5,62.6,59.0,55.8,51.0,82,71,64,29.92,29.84,8,3,10,0.00
2013-9-3,72.2,62.2,58.9,65.0,58.9,56.0,98,89,63,30.02,29.91,7,2,12,0.38
2013-9-4,66.1,60.8,58.2,61.0,58.1,56.0,99,91,74,30.05,30.00,13,5,19,0.00
2013-9-5,66.8,60.5,57.7,59.0,57.3,56.0,97,89,76,30.03,29.90,14,6,27,0.09
2013-9-6,66.1,61.0,57.8,62.0,58.9,56.0,98,93,83,30.06,29.90,11,3,17,0.03
2013-9-7,73.5,62.8,57.4,62.0,58.9,57.0,99,88,66,30.08,30.02,11,4,17,0.00
2013-9-8,75.8,64.8,59.5,61.0,58.3,56.0,90,80,59,30.09,30.01,8,3,13,0.00
2013-9-9,75.5,65.3,59.8,61.0,58.2,56.0,89,78,61,30.05,29.98,10,2,15,0.00
2013-9-10,77.5,66.0,58.4,60.0,56.9,48.0,98,75,40,29.99,29.89,16,6,23,0.00
2013-9-11,90.3,75.9,63.3,63.0,56.8,50.0,81,54,30,29.95,29.87,10,2,15,0.00
2013-9-12,81.4,72.4,66.5,60.0,56.0,49.0,69,57,43,29.94,29.86,8,2,13,0.00
2013-9-13,65.6,58.5,55.0,58.0,56.5,54.0,99,93,74,29.93,29.84,15,6,22,0.00
2013-9-14,72.0,59.8,55.6,62.0,57.8,55.0,99,93,69,29.87,29.74,7,1,11,0.00
2013-9-15,64.1,58.0,55.2,61.0,56.9,54.0,99,96,87,29.78,29.68,16,4,21,0.26
2013-9-16,60.5,56.5,54.5,60.0,55.9,51.0,100,98,89,29.90,29.77,9,3,15,0.10
2013-9-17,61.4,55.6,52.2,55.0,51.5,48.0,95,86,75,29.90,29.83,7,2,10,0.00
2013-9-18,64.3,56.6,51.3,55.0,50.9,49.0,91,81,65,30.06,29.90,14,3,15,0.00
2013-9-19,73.2,62.6,52.0,52.0,48.7,45.0,88,63,41,30.04,29.72,9,3,17,0.00
2013-9-20,67.9,60.0,54.5,54.0,49.4,45.0,95,69,54,29.72,29.56,9,3,17,0.03
2013-9-21,63.8,56.7,53.0,55.0,52.3,50.0,97,85,67,29.70,29.61,9,4,16,0.01
2013-9-22,55.3,52.6,50.7,53.0,51.3,50.0,98,95,82,29.68,29.45,23,7,32,0.23
2013-9-23,56.9,51.5,49.0,52.0,48.5,44.0,98,89,75,29.94,29.69,11,4,26,0.11
2013-9-24,56.0,50.4,47.2,53.0,48.0,45.0,98,91,75,29.94,29.83,10,4,14,0.20
2013-9-25,61.4,50.6,46.6,51.0,47.0,43.0,99,88,60,30.01,29.85,16,4,23,0.98
2013-9-26,61.5,52.2,47.1,51.0,47.5,44.0,95,84,62,30.11,30.01,11,4,14,0.00
2013-9-27,51.1,49.6,48.2,51.0,48.7,46.0,99,97,87,30.09,29.82,15,6,18,0.32
2013-9-28,54.7,51.0,48.0,55.0,50.0,44.0,100,96,76,29.81,29.27,21,9,33,0.84
2013-9-29,50.4,48.7,47.7,49.0,47.9,42.0,100,97,79,29.48,29.04,26,9,43,0.57
2013-9-30,49.0,46.8,44.7,49.0,45.0,41.0,99,93,78,29.87,29.30,18,8,40,0.48
2013-10-1,52.0,46.8,44.2,48.0,45.4,42.0,99,95,82,30.08,29.87,13,6,18,0.13
2013-10-2,47.2,46.0,44.5,47.0,45.7,44.0,99,99,97,30.18,30.05,13,3,19,0.57
2013-10-3,53.3,47.2,44.0,48.0,45.0,43.0,98,92,80,30.45,30.19,12,4,16,0.00
2013-10-4,53.5,49.0,43.8,49.0,45.1,42.0,96,86,76,30.48,30.35,8,2,11,0.00
2013-10-5,62.7,55.9,51.7,53.0,48.4,45.0,85,77,61,30.37,30.13,4,1,10,0.00
2013-10-6,67.3,58.5,52.2,52.0,47.7,43.0,84,69,47,30.12,29.79,11,4,23,0.00
2013-10-7,54.7,50.6,48.5,51.0,48.0,46.0,97,91,76,29.96,29.81,16,5,24,0.21
2013-10-8,54.7,48.7,45.5,47.0,44.2,41.0,97,85,67,30.09,29.95,13,5,25,0.11
2013-10-9,54.4,48.3,43.5,47.0,42.3,37.0,96,80,64,30.13,29.95,8,3,13,0.00
2013-10-10,51.1,47.6,45.9,48.0,44.2,39.0,98,88,75,30.07,29.92,9,3,12,0.01
2013-10-11,50.3,46.7,42.4,47.0,44.1,40.0,94,90,80,30.14,30.06,6,1,10,0.00
2013-10-12,52.2,47.4,45.3,48.0,45.2,42.0,97,92,84,30.22,30.07,11,5,20,0.00
2013-10-13,57.3,49.4,44.0,46.0,42.6,38.0,96,78,60,30.36,30.22,10,4,14,0.00
2013-10-14,56.3,49.1,43.7,49.0,43.5,39.0,94,81,73,30.43,30.36,11,4,14,0.00
2013-10-15,57.4,50.4,45.2,51.0,46.2,43.0,94,85,73,30.39,30.18,9,3,18,0.00
2013-10-16,58.3,49.4,46.5,52.0,46.8,45.0,99,91,76,30.20,30.15,14,6,19,0.00
2013-10-17,60.0,49.9,44.9,50.0,46.5,44.0,99,88,66,30.28,30.20,11,3,15,0.00
2013-10-18,60.9,51.0,43.8,50.0,45.3,42.0,96,81,60,30.25,30.15,6,1,9,0.00
2013-10-19,49.8,46.2,43.2,47.0,44.3,42.0,98,93,76,30.20,30.14,11,2,15,0.00
2013-10-20,46.9,44.9,43.4,47.0,44.7,43.0,99,99,98,30.21,30.16,7,-9,13,0.00
2013-10-21,49.9,46.3,43.4,48.0,45.7,43.0,99,97,88,30.18,30.10,7,1,10,0.00
2013-10-22,49.7,48.1,46.0,47.0,45.4,44.0,94,90,88,30.13,30.12,4,1,6,0.00
2013-10-27,55.8,52.2,50.1,47.0,40.5,34.0,84,65,51,30.01,29.97,13,5,30,0.07
2013-10-28,56.1,50.4,46.2,34.0,29.1,25.0,53,44,33,30.00,29.89,20,7,31,0.00
2013-10-29,51.2,46.9,42.3,40.0,32.9,25.0,71,59,39,30.01,29.91,17,4,27,0.00
2013-10-30,49.4,46.1,42.7,46.0,41.0,35.0,94,82,68,30.10,30.01,15,6,24,0.00
2013-10-31,47.8,46.2,44.2,48.0,45.8,43.0,99,98,89,30.24,30.04,15,6,27,0.25
2013-11-1,50.8,48.5,47.2,49.0,47.7,47.0,99,97,89,30.25,29.79,11,5,19,0.12
2013-11-2,49.4,43.8,38.8,49.0,43.2,38.0,99,98,93,29.85,29.34,22,8,33,1.05
2013-11-3,46.9,41.5,37.7,41.0,39.0,36.0,97,91,75,30.10,29.85,15,4,19,0.00
2013-11-4,42.5,39.6,35.7,39.0,36.0,32.0,96,87,67,30.18,30.04,17,3,21,0.08
2013-11-5,42.1,40.4,39.1,42.0,40.1,38.0,100,98,94,30.25,30.01,8,1,19,0.15
2013-11-6,48.4,44.0,39.1,45.0,41.6,38.0,99,91,71,30.32,29.95,13,3,27,0.01
2013-11-7,48.6,46.0,44.3,48.0,45.1,43.0,100,96,83,29.98,29.62,17,7,35,0.14
2013-11-8,51.4,45.4,43.5,45.0,42.3,40.0,96,89,73,30.14,29.94,12,4,22,0.03
2013-11-9,46.5,43.8,41.5,44.0,41.5,40.0,96,91,85,30.13,30.08,11,2,15,0.00
2013-11-10,46.0,43.6,41.8,42.0,41.1,38.0,96,91,74,30.17,30.11,11,4,29,0.01
2013-11-11,56.1,50.5,45.9,47.0,42.3,38.0,83,74,58,30.16,29.97,17,4,26,0.00
2013-11-12,56.1,51.4,48.9,50.0,46.4,39.0,97,84,53,30.31,29.97,21,8,41,0.00
2013-11-13,52.0,48.4,44.7,48.0,45.8,43.0,97,90,77,30.40,30.29,12,4,20,0.01
2013-11-14,49.7,44.9,41.0,45.0,41.6,37.0,98,89,74,30.28,30.03,11,3,17,0.06
2013-11-15,42.9,41.1,38.7,43.0,39.9,38.0,99,95,89,30.03,29.29,22,7,31,0.66
2013-11-16,44.1,40.6,37.0,38.0,35.5,33.0,95,82,73,29.72,29.31,18,7,33,0.00
2013-11-17,46.2,41.4,36.2,43.0,39.3,32.0,98,92,81,29.87,29.72,18,5,24,0.09
2013-11-18,45.5,43.2,40.6,45.0,42.7,40.0,99,98,95,29.88,29.52,12,2,17,0.70
2013-11-19,41.7,37.1,33.0,41.0,28.3,-99.9,99,77,45,30.05,29.55,19,7,30,0.06
2013-11-20,39.5,33.7,30.5,29.0,26.3,23.0,85,75,59,30.52,30.06,11,2,14,0.00
2013-11-21,40.2,33.4,29.8,31.0,26.2,20.0,87,75,63,30.67,30.52,7,2,13,0.00
2013-11-22,41.5,37.4,32.9,33.0,26.8,22.0,76,66,57,30.66,30.46,15,4,26,0.00
2013-11-23,47.8,41.4,38.3,38.0,32.9,28.0,86,72,59,30.46,30.20,7,2,10,0.00
2013-11-24,45.6,40.8,36.9,42.0,37.5,33.0,96,88,76,30.25,30.17,6,2,13,0.00
2013-11-25,49.3,44.0,40.2,41.0,35.6,30.0,82,73,55,30.30,30.25,7,1,11,0.00
2013-11-26,50.2,44.3,39.4,39.0,34.6,32.0,81,69,52,30.26,30.09,9,2,18,0.00
2013-11-27,51.9,47.6,45.3,42.0,38.3,34.0,81,70,59,30.09,29.96,8,1,13,0.00
2013-11-28,53.0,47.1,44.3,44.0,38.5,34.0,93,72,56,30.15,30.01,9,3,13,0.02
2013-11-29,46.2,44.2,42.4,45.0,43.4,42.0,99,97,89,30.30,30.16,11,4,15,0.11
2013-11-30,45.1,43.2,42.0,45.0,43.1,42.0,99,99,99,30.29,30.05,17,7,24,0.30
2013-12-1,47.7,44.5,36.3,47.0,43.0,33.0,100,94,81,30.05,29.71,23,8,27,0.24
2013-12-2,37.9,34.2,28.0,34.0,28.2,16.0,91,79,62,30.10,29.76,27,5,31,0.00
2013-12-3,35.0,29.5,26.4,19.0,15.4,13.0,63,56,50,30.33,30.08,32,8,42,0.00
2013-12-4,34.2,28.8,25.9,15.0,10.3,2.0,57,47,32,30.35,30.29,22,5,29,0.00
2013-12-5,31.6,26.4,23.4,22.0,13.2,-99.9,77,62,41,30.33,30.19,12,2,24,0.00
2013-12-6,24.5,20.3,16.5,10.0,4.8,1.0,58,51,42,30.30,30.20,20,8,35,0.00
2013-12-7,26.4,19.8,15.2,10.0,2.7,-3.0,64,48,30,30.42,30.29,22,5,32,0.00
2013-12-8,31.2,25.1,20.7,22.0,16.8,9.0,80,71,61,30.55,30.41,7,2,10,0.00
2013-12-9,29.8,27.7,26.3,28.0,23.6,21.0,94,84,77,30.56,30.47,10,-6,14,0.00
2013-12-10,34.7,32.1,29.9,32.0,30.1,28.0,100,92,84,30.48,30.42,9,3,13,0.00
2013-12-11,37.2,35.2,32.9,33.0,30.2,28.0,88,82,76,30.42,30.15,4,1,10,0.00
2013-12-12,40.2,38.3,36.1,39.0,34.9,31.0,98,87,76,30.14,29.97,24,7,27,0.09
2013-12-13,43.1,41.2,39.5,43.0,41.1,39.0,99,99,98,30.42,30.10,14,5,17,0.10
2013-12-14,43.2,42.4,41.9,43.0,42.2,42.0,99,99,99,30.42,30.29,16,7,22,0.02
2013-12-15,46.0,43.0,38.7,46.0,42.4,38.0,100,97,85,30.43,30.28,16,6,22,0.07
2013-12-16,46.2,40.7,38.0,44.0,38.9,36.0,97,93,82,30.48,30.26,10,3,14,0.00
2013-12-17,42.0,39.6,37.7,40.0,38.4,36.0,99,95,87,30.26,30.07,11,5,17,0.01
2013-12-18,41.0,37.1,32.6,40.0,32.6,20.0,99,84,59,30.22,30.02,14,4,27,0.00
2013-12-19,34.0,31.7,29.7,28.0,20.1,14.0,93,63,45,30.34,30.18,13,3,20,0.00
2013-12-20,33.8,31.1,28.4,34.0,30.6,28.0,99,98,93,30.18,29.70,18,6,28,0.05
2013-12-21,37.9,35.2,33.3,38.0,35.0,33.0,99,99,98,30.16,29.86,7,2,14,0.45
2013-12-22,43.8,40.5,37.8,44.0,40.4,38.0,100,99,99,30.28,30.16,13,5,18,0.41
2013-12-23,47.5,43.4,37.3,45.0,41.2,35.0,100,92,73,30.48,30.10,21,7,28,0.14
2013-12-24,44.1,38.3,34.3,39.0,35.4,32.0,96,89,74,30.59,30.49,7,2,9,0.00
2013-12-25,39.0,37.1,34.8,36.0,34.1,32.0,96,88,81,30.54,30.39,7,1,9,0.01
2013-12-26,45.8,42.3,38.1,40.0,35.7,29.0,94,78,56,30.39,30.19,9,3,12,0.02
2013-12-27,46.4,42.6,40.5,45.0,40.8,39.0,100,93,85,30.34,30.06,19,5,29,0.31
2013-12-28,41.9,39.7,36.2,40.0,37.9,35.0,96,93,89,30.51,30.34,13,4,13,0.00
2013-12-29,40.1,38.5,36.1,39.0,37.1,35.0,98,95,90,30.47,30.32,11,4,17,0.01
2013-12-30,44.2,41.1,39.6,42.0,39.0,38.0,97,92,84,30.31,30.10,13,3,14,0.02
2013-12-31,42.2,40.8,40.0,42.0,40.5,40.0,100,99,94,30.38,30.16,9,3,12,0.10
2014-1-1,43.6,40.6,38.5,43.0,40.0,38.0,99,97,93,30.41,30.24,3,1,6,0.02
2014-1-2,44.5,41.7,38.7,43.0,40.6,37.0,99,96,88,30.23,29.86,21,7,31,0.60